createdAt,value
2023-05-12T00:00:49.613Z,2.70
2023-05-12T00:03:21.770Z,3.30
2023-05-12T00:05:54.429Z,3.40
2023-05-12T00:08:26.668Z,3.00
2023-05-12T00:10:58.992Z,2.90
2023-05-12T00:13:31.350Z,4.20
2023-05-12T00:16:03.672Z,2.70
2023-05-12T00:18:36.129Z,4.50
2023-05-12T00:21:08.945Z,3.60
2023-05-12T00:23:41.361Z,3.20
2023-05-12T00:26:13.562Z,2.90
2023-05-12T00:28:47.624Z,3.40
2023-05-12T00:31:20.000Z,2.90
2023-05-12T00:33:52.163Z,3.90
2023-05-12T00:36:24.764Z,3.80
2023-05-12T00:38:57.353Z,4.10
2023-05-12T00:41:29.628Z,3.10
2023-05-12T00:44:01.922Z,4.10
2023-05-12T00:46:34.825Z,3.80
2023-05-12T00:49:08.537Z,3.40
2023-05-12T00:51:41.485Z,4.30
2023-05-12T00:54:13.743Z,5.00
2023-05-12T00:56:45.922Z,5.20
2023-05-12T00:59:18.274Z,4.00
2023-05-12T01:01:51.815Z,4.60
2023-05-12T01:04:24.665Z,4.40
2023-05-12T01:07:01.239Z,4.90
2023-05-12T01:09:33.594Z,5.00
2023-05-12T01:12:06.308Z,5.30
2023-05-12T01:14:38.596Z,5.10
2023-05-12T01:17:14.681Z,4.40
2023-05-12T01:19:51.617Z,4.70
2023-05-12T01:22:24.914Z,4.10
2023-05-12T01:24:59.512Z,4.60
2023-05-12T01:27:32.801Z,5.10
2023-05-12T01:30:07.914Z,4.80
2023-05-12T01:32:41.914Z,6.20
2023-05-12T01:35:14.549Z,5.80
2023-05-12T01:37:46.953Z,6.20
2023-05-12T01:40:19.819Z,5.50
2023-05-12T01:42:52.892Z,4.80
2023-05-12T01:45:25.032Z,5.40
2023-05-12T01:47:57.266Z,5.80
2023-05-12T01:50:29.618Z,7.10
2023-05-12T01:53:01.942Z,6.80
2023-05-12T01:55:34.713Z,6.50
2023-05-12T01:58:06.846Z,6.80
2023-05-12T02:00:39.184Z,6.50
2023-05-12T02:03:11.591Z,6.90
2023-05-12T02:05:43.997Z,6.50
2023-05-12T02:08:16.205Z,7.10
2023-05-12T02:10:48.418Z,7.20
2023-05-12T02:13:20.635Z,6.80
2023-05-12T02:15:52.869Z,6.80
2023-05-12T02:18:25.232Z,6.60
2023-05-12T02:20:57.395Z,8.10
2023-05-12T02:23:29.605Z,6.90
2023-05-12T02:26:01.783Z,7.60
2023-05-12T02:28:34.166Z,5.70
2023-05-12T02:31:06.449Z,6.50
2023-05-12T02:33:38.835Z,6.70
2023-05-12T02:36:11.932Z,6.40
2023-05-12T02:38:44.197Z,7.70
2023-05-12T02:41:16.287Z,6.70
2023-05-12T02:43:48.701Z,5.30
2023-05-12T02:46:20.864Z,7.20
2023-05-12T02:48:53.077Z,10.10
2023-05-12T02:51:25.262Z,5.90
2023-05-12T02:53:57.617Z,6.70
2023-05-12T02:56:31.347Z,8.00
2023-05-12T03:01:36.750Z,6.50
2023-05-12T03:04:08.894Z,7.50
2023-05-12T03:06:41.136Z,7.00
2023-05-12T03:09:13.583Z,8.10
2023-05-12T03:11:45.971Z,6.70
2023-05-12T03:14:18.242Z,7.20
2023-05-12T03:16:50.448Z,6.20
2023-05-12T03:19:22.566Z,7.20
2023-05-12T03:21:55.017Z,5.80
2023-05-12T03:24:27.319Z,6.40
2023-05-12T03:26:59.688Z,7.30
2023-05-12T03:29:31.940Z,8.90
2023-05-12T03:32:04.133Z,7.30
2023-05-12T03:34:36.572Z,6.40
2023-05-12T03:37:09.268Z,8.70
2023-05-12T03:39:41.398Z,10.20
2023-05-12T03:42:14.643Z,8.10
2023-05-12T03:44:46.826Z,8.50
2023-05-12T03:47:19.261Z,7.20
2023-05-12T03:49:51.877Z,8.50
2023-05-12T03:52:24.154Z,7.30
2023-05-12T03:54:56.595Z,7.90
2023-05-12T03:57:28.801Z,7.50
2023-05-12T04:00:01.091Z,7.20
2023-05-12T04:02:33.713Z,8.00
2023-05-12T04:05:08.315Z,5.80
2023-05-12T04:07:40.527Z,7.20
2023-05-12T04:10:13.480Z,6.70
2023-05-12T04:12:45.822Z,6.80
2023-05-12T04:15:18.700Z,8.40
2023-05-12T04:17:51.202Z,8.00
2023-05-12T04:20:24.033Z,7.00
2023-05-12T04:22:56.811Z,8.20
2023-05-12T04:25:29.020Z,6.80
2023-05-12T04:28:01.206Z,7.70
2023-05-12T04:30:33.411Z,6.60
2023-05-12T04:33:05.772Z,7.80
2023-05-12T04:35:38.286Z,7.80
2023-05-12T04:38:10.630Z,9.30
2023-05-12T04:40:42.841Z,7.40
2023-05-12T04:45:51.494Z,10.10
2023-05-12T04:48:23.801Z,9.90
2023-05-12T04:50:56.110Z,10.30
2023-05-12T04:53:28.428Z,9.30
2023-05-12T04:56:00.788Z,9.00
2023-05-12T04:58:33.127Z,8.60
2023-05-12T05:01:05.502Z,9.00
2023-05-12T05:03:37.969Z,9.80
2023-05-12T05:06:10.520Z,9.10
2023-05-12T05:08:42.835Z,7.20
2023-05-12T05:11:15.117Z,9.20
2023-05-12T05:13:47.269Z,9.50
2023-05-12T05:16:19.582Z,12.00
2023-05-12T05:18:52.207Z,8.50
2023-05-12T05:21:24.595Z,9.00
2023-05-12T05:23:56.872Z,9.30
2023-05-12T05:26:29.218Z,8.80
2023-05-12T05:29:01.414Z,8.00
2023-05-12T05:31:34.007Z,7.70
2023-05-12T05:34:06.249Z,8.50
2023-05-12T05:36:38.552Z,8.60
2023-05-12T05:39:11.292Z,8.20
2023-05-12T05:41:43.413Z,8.80
2023-05-12T05:44:15.980Z,6.10
2023-05-12T05:46:48.397Z,7.80
2023-05-12T05:49:20.664Z,8.10
2023-05-12T05:51:52.870Z,7.50
2023-05-12T05:54:26.110Z,8.50
2023-05-12T05:57:00.830Z,6.10
2023-05-12T05:59:33.420Z,8.10
2023-05-12T06:02:05.842Z,6.40
2023-05-12T06:04:38.269Z,6.30
2023-05-12T06:07:10.700Z,7.10
2023-05-12T06:09:43.026Z,6.80
2023-05-12T06:12:15.400Z,5.90
2023-05-12T06:14:47.571Z,6.70
2023-05-12T06:17:19.917Z,6.00
2023-05-12T06:19:52.397Z,6.10
2023-05-12T06:22:25.150Z,8.20
2023-05-12T06:24:57.403Z,5.90
2023-05-12T06:27:29.860Z,5.20
2023-05-12T06:30:02.056Z,5.70
2023-05-12T06:32:34.449Z,6.00
2023-05-12T06:35:07.735Z,5.00
2023-05-12T06:37:40.040Z,5.70
2023-05-12T06:40:13.115Z,5.20
2023-05-12T06:42:45.623Z,8.10
2023-05-12T06:45:17.938Z,4.40
2023-05-12T06:47:50.456Z,6.40
2023-05-12T06:50:22.924Z,5.70
2023-05-12T06:52:55.199Z,4.30
2023-05-12T06:55:27.639Z,5.70
2023-05-12T06:57:59.837Z,5.80
2023-05-12T07:00:32.022Z,5.60
2023-05-12T07:03:04.317Z,5.30
2023-05-12T07:05:36.657Z,5.00
2023-05-12T07:08:08.983Z,5.60
2023-05-12T07:10:41.318Z,5.20
2023-05-12T07:13:13.460Z,5.70
2023-05-12T07:15:45.744Z,4.60
2023-05-12T07:18:18.134Z,4.90
2023-05-12T07:20:50.571Z,4.60
2023-05-12T07:23:22.900Z,3.90
2023-05-12T07:25:55.433Z,3.90
2023-05-12T07:28:27.845Z,5.40
2023-05-12T07:31:00.022Z,4.50
2023-05-12T07:33:32.784Z,4.20
2023-05-12T07:36:05.923Z,4.60
2023-05-12T07:38:38.430Z,4.40
2023-05-12T07:41:10.735Z,4.80
2023-05-12T07:43:42.753Z,4.10
2023-05-12T07:46:15.067Z,3.80
2023-05-12T07:48:47.387Z,5.20
2023-05-12T07:51:19.712Z,4.00
2023-05-12T07:53:51.924Z,4.40
2023-05-12T07:56:24.173Z,5.40
2023-05-12T07:58:56.481Z,3.70
2023-05-12T08:01:28.739Z,2.60
2023-05-12T08:04:01.239Z,2.50
2023-05-12T08:06:34.379Z,2.80
2023-05-12T08:09:06.915Z,3.20
2023-05-12T08:11:39.121Z,3.40
2023-05-12T08:14:11.405Z,2.40
2023-05-12T08:16:45.620Z,2.90
2023-05-12T08:19:17.902Z,3.20
2023-05-12T08:21:50.104Z,2.60
2023-05-12T08:24:22.670Z,4.10
2023-05-12T08:26:54.897Z,3.00
2023-05-12T08:29:28.288Z,2.20
2023-05-12T08:32:01.230Z,2.90
2023-05-12T08:34:34.031Z,4.60
2023-05-12T08:37:07.763Z,3.70
2023-05-12T08:39:40.216Z,2.20
2023-05-12T08:42:31.829Z,3.00
2023-05-12T08:45:04.584Z,3.00
2023-05-12T08:47:38.788Z,2.60
2023-05-12T08:50:13.304Z,2.80
2023-05-12T08:52:45.887Z,3.80
2023-05-12T08:55:19.258Z,2.40
2023-05-12T08:57:51.745Z,3.80
2023-05-12T09:00:25.709Z,2.10
2023-05-12T09:02:58.909Z,3.40
2023-05-12T09:05:33.292Z,2.20
2023-05-12T09:08:06.748Z,3.60
2023-05-12T09:10:39.697Z,2.10
2023-05-12T09:13:18.813Z,3.00
2023-05-12T09:15:53.981Z,3.40
2023-05-12T09:18:26.324Z,3.30
2023-05-12T09:20:58.501Z,2.90
2023-05-12T09:23:30.775Z,2.70
2023-05-12T09:26:04.268Z,2.80
2023-05-12T09:28:40.129Z,3.20
2023-05-12T09:31:20.370Z,2.50
2023-05-12T09:33:53.479Z,3.00
2023-05-12T09:36:27.166Z,3.10
2023-05-12T09:39:07.372Z,3.50
2023-05-12T09:41:41.023Z,2.70
2023-05-12T09:44:16.754Z,3.60
2023-05-12T09:46:49.280Z,2.50
2023-05-12T09:49:26.090Z,2.60
2023-05-12T09:51:59.712Z,2.60
2023-05-12T09:54:33.756Z,2.70
2023-05-12T09:57:07.474Z,3.20
2023-05-12T09:59:40.989Z,2.50
2023-05-12T10:02:18.275Z,3.40
2023-05-12T10:04:58.146Z,3.60
2023-05-12T10:07:31.472Z,3.20
2023-05-12T10:10:07.549Z,5.30
2023-05-12T10:12:40.323Z,2.60
2023-05-12T10:15:14.624Z,4.20
2023-05-12T10:17:47.689Z,3.60
2023-05-12T10:20:20.950Z,2.10
2023-05-12T10:22:55.973Z,4.20
2023-05-12T10:25:28.272Z,3.10
2023-05-12T10:28:02.455Z,3.30
2023-05-12T10:30:35.113Z,3.10
2023-05-12T10:33:09.363Z,2.80
2023-05-12T10:35:46.193Z,3.60
2023-05-12T10:38:20.266Z,3.30
2023-05-12T10:41:01.296Z,2.80
2023-05-12T10:43:43.669Z,3.90
2023-05-12T10:46:21.798Z,3.80
2023-05-12T10:48:57.006Z,2.70
2023-05-12T10:51:31.152Z,2.80
2023-05-12T10:54:05.015Z,3.40
2023-05-12T10:56:46.419Z,3.30
2023-05-12T10:59:21.918Z,2.80
2023-05-12T11:02:05.564Z,3.70
2023-05-12T11:04:44.872Z,3.50
2023-05-12T11:07:22.189Z,3.00
2023-05-12T11:09:59.500Z,3.40
2023-05-12T11:12:35.487Z,1.90
2023-05-12T11:15:10.139Z,3.70
2023-05-12T11:17:42.945Z,2.80
2023-05-12T11:20:25.223Z,1.60
2023-05-12T11:22:57.637Z,2.20
2023-05-12T11:25:31.337Z,1.70
2023-05-12T11:28:04.178Z,2.10
2023-05-12T11:30:36.806Z,1.50
2023-05-12T11:33:09.266Z,2.20
2023-05-12T11:35:41.688Z,1.60
2023-05-12T11:38:20.066Z,2.00
2023-05-12T11:40:52.283Z,1.50
2023-05-12T11:43:24.457Z,2.40
2023-05-12T11:45:56.577Z,1.70
2023-05-12T11:48:36.176Z,2.20
2023-05-12T11:51:09.171Z,2.30
2023-05-12T11:53:44.277Z,2.30
2023-05-12T11:56:23.500Z,2.80
2023-05-12T11:58:59.755Z,2.00
2023-05-12T12:01:33.808Z,1.10
2023-05-12T12:04:06.329Z,3.20
2023-05-12T12:06:46.565Z,2.10
2023-05-12T12:09:18.730Z,1.60
2023-05-12T12:11:50.874Z,1.50
2023-05-12T12:14:23.184Z,1.90
2023-05-12T12:16:55.593Z,1.10
2023-05-12T12:19:28.124Z,1.60
2023-05-12T12:22:00.794Z,2.90
2023-05-12T12:24:33.367Z,2.30
2023-05-12T12:27:06.050Z,2.30
2023-05-12T12:29:38.323Z,2.90
2023-05-12T12:32:11.089Z,1.50
2023-05-12T12:34:45.112Z,1.60
2023-05-12T12:37:17.719Z,3.00
2023-05-12T12:39:49.890Z,1.60
2023-05-12T12:42:22.453Z,2.90
2023-05-12T12:44:54.690Z,2.00
2023-05-12T12:47:27.212Z,1.40
2023-05-12T12:49:59.904Z,2.00
2023-05-12T12:52:33.018Z,1.10
2023-05-12T12:55:05.645Z,1.70
2023-05-12T12:57:37.919Z,1.60
2023-05-12T13:00:13.611Z,1.90
2023-05-12T13:05:17.858Z,3.10
2023-05-12T13:07:51.523Z,1.70
2023-05-12T13:10:25.678Z,2.10
2023-05-12T13:12:57.829Z,1.30
2023-05-12T13:15:32.434Z,1.50
2023-05-12T13:18:04.702Z,1.70
2023-05-12T13:20:37.049Z,3.60
2023-05-12T13:23:09.261Z,2.30
2023-05-12T13:25:41.679Z,1.90
2023-05-12T13:28:13.904Z,2.30
2023-05-12T13:30:46.762Z,2.00
2023-05-12T13:33:18.989Z,1.30
2023-05-12T13:35:51.178Z,2.00
2023-05-12T13:38:23.489Z,1.80
2023-05-12T13:40:55.898Z,1.60
2023-05-12T13:43:28.229Z,1.60
2023-05-12T13:46:00.463Z,1.50
2023-05-12T13:48:32.695Z,2.70
2023-05-12T13:51:05.061Z,1.90
2023-05-12T13:53:39.729Z,1.80
2023-05-12T13:56:12.277Z,1.80
2023-05-12T13:58:44.528Z,2.10
2023-05-12T14:01:16.864Z,2.20
2023-05-12T14:03:49.242Z,2.00
2023-05-12T14:06:21.725Z,2.00
2023-05-12T14:08:53.879Z,2.10
2023-05-12T14:11:26.329Z,1.60
2023-05-12T14:14:00.476Z,1.90
2023-05-12T14:16:32.711Z,1.80
2023-05-12T14:19:04.950Z,2.40
2023-05-12T14:21:37.246Z,1.50
2023-05-12T14:24:10.664Z,1.80
2023-05-12T14:26:42.898Z,1.80
2023-05-12T14:29:15.225Z,3.00
2023-05-12T14:31:47.444Z,2.20
2023-05-12T14:34:20.532Z,2.50
2023-05-12T14:36:52.823Z,1.80
2023-05-12T14:39:25.261Z,1.60
2023-05-12T14:41:57.491Z,1.70
2023-05-12T14:44:29.655Z,1.80
2023-05-12T14:47:01.920Z,1.90
2023-05-12T14:49:34.172Z,1.60
2023-05-12T14:52:06.849Z,1.60
2023-05-12T14:54:39.083Z,2.30
2023-05-12T14:57:13.641Z,2.80
2023-05-12T14:59:46.007Z,0.90
2023-05-12T15:02:18.148Z,1.50
2023-05-12T15:04:51.489Z,1.20
2023-05-12T15:07:23.672Z,1.40
2023-05-12T15:09:55.928Z,2.80
2023-05-12T15:12:28.454Z,2.30
2023-05-12T15:15:02.425Z,1.50
2023-05-12T15:17:34.813Z,1.10
2023-05-12T15:20:09.914Z,1.50
2023-05-12T15:22:42.272Z,1.90
2023-05-12T15:25:14.822Z,0.80
2023-05-12T15:27:47.058Z,1.60
2023-05-12T15:30:19.811Z,1.70
2023-05-12T15:32:52.001Z,2.30
2023-05-12T15:35:24.180Z,2.00
2023-05-12T15:37:56.509Z,1.20
2023-05-12T15:40:30.721Z,1.70
2023-05-12T15:43:03.148Z,1.70
2023-05-12T15:45:37.548Z,1.30
2023-05-12T15:48:09.999Z,1.40
2023-05-12T15:50:42.150Z,1.80
2023-05-12T15:53:14.230Z,3.40
2023-05-12T15:55:46.824Z,1.50
2023-05-12T15:58:19.022Z,1.20
2023-05-12T16:00:51.270Z,1.40
2023-05-12T16:03:23.793Z,1.10
2023-05-12T16:05:56.357Z,2.00
2023-05-12T16:08:28.587Z,2.30
2023-05-12T16:11:00.889Z,1.20
2023-05-12T16:13:33.192Z,1.20
2023-05-12T16:16:06.404Z,0.80
2023-05-12T16:18:40.112Z,1.70
2023-05-12T16:21:12.854Z,1.10
2023-05-12T16:23:44.990Z,1.80
2023-05-12T16:26:17.149Z,1.80
2023-05-12T16:28:49.744Z,1.80
2023-05-12T16:31:21.862Z,2.00
2023-05-12T16:33:54.027Z,1.60
2023-05-12T16:36:26.416Z,1.80
2023-05-12T16:38:59.582Z,1.60
2023-05-12T16:41:32.022Z,1.70
2023-05-12T16:44:04.267Z,1.30
2023-05-12T16:46:37.707Z,1.80
2023-05-12T16:49:11.097Z,1.80
2023-05-12T16:51:43.411Z,1.20
2023-05-12T16:54:15.931Z,1.40
2023-05-12T16:56:48.534Z,1.20
2023-05-12T16:59:20.960Z,1.30
2023-05-12T17:01:53.209Z,1.80
2023-05-12T17:04:25.565Z,1.60
2023-05-12T17:06:57.983Z,2.30
2023-05-12T17:09:30.347Z,1.50
2023-05-12T17:12:04.562Z,4.10
2023-05-12T17:14:37.350Z,1.70
2023-05-12T17:17:09.875Z,2.50
2023-05-12T17:19:43.431Z,2.40
2023-05-12T17:22:16.060Z,1.70
2023-05-12T17:24:48.154Z,2.00
2023-05-12T17:27:20.774Z,2.00
2023-05-12T17:29:52.999Z,3.10
2023-05-12T17:32:25.292Z,2.80
2023-05-12T17:34:58.146Z,2.80
2023-05-12T17:37:30.583Z,2.70
2023-05-12T17:40:04.628Z,2.20
2023-05-12T17:42:37.316Z,2.70
2023-05-12T17:45:13.868Z,2.70
2023-05-12T17:47:48.107Z,3.40
2023-05-12T17:50:20.522Z,3.60
2023-05-12T17:52:54.578Z,2.50
2023-05-12T17:55:26.870Z,2.90
2023-05-12T17:57:59.007Z,1.80
2023-05-12T18:00:31.324Z,3.20
2023-05-12T18:03:03.765Z,3.00
2023-05-12T18:05:36.702Z,4.30
2023-05-12T18:08:09.302Z,3.90
2023-05-12T18:10:41.601Z,3.50
2023-05-12T18:13:14.802Z,2.70
2023-05-12T18:15:46.931Z,2.70
2023-05-12T18:18:19.260Z,2.80
2023-05-12T18:20:51.496Z,3.30
2023-05-12T18:23:23.848Z,4.30
2023-05-12T18:25:56.543Z,4.10
2023-05-12T18:28:29.239Z,2.90
2023-05-12T18:31:09.301Z,2.80
2023-05-12T18:33:50.874Z,3.20
2023-05-12T18:36:23.826Z,1.80
2023-05-12T18:38:56.334Z,2.60
2023-05-12T18:41:29.009Z,2.40
2023-05-12T18:44:01.233Z,2.60
2023-05-12T18:46:33.428Z,2.60
2023-05-12T18:49:05.799Z,3.10
2023-05-12T18:51:38.238Z,3.90
2023-05-12T18:54:10.632Z,3.00
2023-05-12T18:56:42.757Z,3.20
2023-05-12T18:59:15.084Z,4.00
2023-05-12T19:01:48.966Z,2.90
2023-05-12T19:04:21.993Z,5.90
2023-05-12T19:06:54.126Z,3.80
2023-05-12T19:09:26.292Z,3.00
2023-05-12T19:11:58.617Z,4.20
2023-05-12T19:14:30.834Z,3.40
2023-05-12T19:17:03.008Z,2.60
2023-05-12T19:19:35.262Z,3.40
2023-05-12T19:22:07.822Z,2.50
2023-05-12T19:24:40.080Z,3.90
2023-05-12T19:27:12.270Z,3.30
2023-05-12T19:29:44.564Z,2.00
2023-05-12T19:32:18.246Z,2.40
2023-05-12T19:34:51.851Z,3.40
2023-05-12T19:37:24.198Z,2.30
2023-05-12T19:39:56.788Z,3.20
2023-05-12T19:42:28.895Z,3.90
2023-05-12T19:45:01.065Z,2.20
2023-05-12T19:47:33.556Z,2.60
2023-05-12T19:50:07.740Z,2.40
2023-05-12T19:52:40.337Z,3.30
2023-05-12T19:55:12.944Z,3.00
2023-05-12T19:57:45.490Z,3.20
2023-05-12T20:00:19.154Z,2.20
2023-05-12T20:02:51.635Z,4.00
2023-05-12T20:05:24.526Z,2.00
2023-05-12T20:07:57.199Z,2.20
2023-05-12T20:10:29.412Z,2.10
2023-05-12T20:13:03.579Z,2.20
2023-05-12T20:15:36.013Z,2.10
2023-05-12T20:18:08.714Z,1.90
2023-05-12T20:20:41.043Z,1.90
2023-05-12T20:23:13.254Z,2.50
2023-05-12T20:25:45.886Z,2.50
2023-05-12T20:28:18.186Z,2.30
2023-05-12T20:30:50.841Z,1.90
2023-05-12T20:33:23.069Z,1.80
2023-05-12T20:35:55.552Z,1.80
2023-05-12T20:38:28.038Z,1.70
2023-05-12T20:41:06.580Z,2.70
2023-05-12T20:43:40.145Z,1.70
2023-05-12T20:46:12.756Z,2.20
2023-05-12T20:48:45.141Z,2.50
2023-05-12T20:51:17.320Z,2.30
2023-05-12T20:53:49.520Z,1.80
2023-05-12T20:56:23.321Z,2.30
2023-05-12T20:58:57.448Z,2.50
2023-05-12T21:01:29.972Z,5.10
2023-05-12T21:04:02.341Z,1.90
2023-05-12T21:06:35.972Z,2.20
2023-05-12T21:09:08.214Z,2.10
2023-05-12T21:11:40.537Z,2.20
2023-05-12T21:14:12.649Z,1.50
2023-05-12T21:16:45.176Z,3.50
2023-05-12T21:19:17.515Z,1.40
2023-05-12T21:21:49.822Z,1.40
2023-05-12T21:24:22.133Z,2.20
2023-05-12T21:26:54.299Z,3.70
2023-05-12T21:29:26.545Z,2.00
2023-05-12T21:31:58.737Z,1.50
2023-05-12T21:34:31.550Z,2.10
2023-05-12T21:37:03.718Z,2.10
2023-05-12T21:39:35.841Z,1.90
2023-05-12T21:42:09.030Z,2.10
2023-05-12T21:44:41.246Z,1.80
2023-05-12T21:47:13.408Z,1.90
2023-05-12T21:49:46.053Z,2.30
2023-05-12T21:52:18.401Z,2.60
2023-05-12T21:54:50.664Z,1.70
2023-05-12T21:57:22.828Z,2.20
2023-05-12T21:59:56.365Z,1.70
2023-05-12T22:02:28.584Z,2.30
2023-05-12T22:05:00.936Z,2.00
2023-05-12T22:07:33.218Z,1.90
2023-05-12T22:10:06.656Z,1.80
2023-05-12T22:12:38.756Z,2.40
2023-05-12T22:15:12.237Z,3.10
2023-05-12T22:17:45.644Z,2.80
2023-05-12T22:20:19.069Z,1.20
2023-05-12T22:22:51.550Z,2.10
2023-05-12T22:25:23.687Z,3.30
2023-05-12T22:27:55.810Z,1.90
2023-05-12T22:30:28.449Z,2.80
2023-05-12T22:33:01.247Z,2.20
2023-05-12T22:35:33.502Z,2.10
2023-05-12T22:38:05.808Z,2.90
2023-05-12T22:40:38.222Z,3.30
2023-05-12T22:43:12.850Z,2.50
2023-05-12T22:45:45.037Z,1.90
2023-05-12T22:48:17.331Z,2.40
2023-05-12T22:50:49.629Z,2.60
2023-05-12T22:53:21.868Z,2.90
2023-05-12T22:55:54.037Z,3.10
2023-05-12T22:58:26.163Z,3.10
2023-05-12T23:00:58.517Z,2.70
2023-05-12T23:03:32.632Z,2.70
2023-05-12T23:06:04.903Z,1.70
2023-05-12T23:08:37.086Z,3.60
2023-05-12T23:11:11.993Z,3.10
2023-05-12T23:13:44.263Z,1.90
2023-05-12T23:16:16.713Z,2.10
2023-05-12T23:18:48.938Z,2.80
2023-05-12T23:21:21.327Z,2.40
2023-05-12T23:23:53.670Z,3.30
2023-05-12T23:26:25.974Z,2.90
2023-05-12T23:28:58.253Z,2.40
2023-05-12T23:31:30.650Z,2.90
2023-05-12T23:34:02.850Z,2.80
2023-05-12T23:36:34.773Z,3.50
2023-05-12T23:39:07.068Z,5.20
2023-05-12T23:41:39.248Z,2.70
2023-05-12T23:44:11.322Z,4.50
2023-05-12T23:46:43.637Z,2.90
2023-05-12T23:49:16.199Z,3.60
2023-05-12T23:51:48.480Z,3.30
2023-05-12T23:54:20.669Z,3.10
2023-05-12T23:56:52.986Z,2.90
2023-05-12T23:59:25.687Z,3.70
